sensor_id;sensor_type;location;lat;lon;timestamp;pressure;altitude;pressure_sealevel;temperature;humidity
56614;BME280;75854;35.670;139.690;2024-01-27T00:01:23;101531.77;;;4.95;26.76
56614;BME280;75854;35.670;139.690;2024-01-27T00:03:53;101536.89;;;4.39;27.56
56614;BME280;75854;35.670;139.690;2024-01-27T00:06:24;101534.76;;;4.96;26.15
56614;BME280;75854;35.670;139.690;2024-01-27T00:08:54;101540.05;;;4.40;26.63
56614;BME280;75854;35.670;139.690;2024-01-27T00:11:24;101540.40;;;4.82;27.37
56614;BME280;75854;35.670;139.690;2024-01-27T00:13:54;101543.75;;;4.80;26.44
56614;BME280;75854;35.670;139.690;2024-01-27T00:16:24;101544.18;;;4.88;27.05
56614;BME280;75854;35.670;139.690;2024-01-27T00:18:53;101553.94;;;4.48;26.98
56614;BME280;75854;35.670;139.690;2024-01-27T00:21:23;101556.43;;;5.15;26.60
56614;BME280;75854;35.670;139.690;2024-01-27T00:23:53;101552.09;;;4.86;26.65
56614;BME280;75854;35.670;139.690;2024-01-27T00:26:24;101555.88;;;5.49;27.24
56614;BME280;75854;35.670;139.690;2024-01-27T00:28:54;101568.64;;;5.31;26.61
56614;BME280;75854;35.670;139.690;2024-01-27T00:31:23;101556.00;;;5.59;26.21
56614;BME280;75854;35.670;139.690;2024-01-27T00:33:53;101560.84;;;5.62;26.38
56614;BME280;75854;35.670;139.690;2024-01-27T00:36:23;101559.41;;;5.99;25.92
56614;BME280;75854;35.670;139.690;2024-01-27T00:38:53;101560.41;;;5.15;26.12
56614;BME280;75854;35.670;139.690;2024-01-27T00:41:23;101558.53;;;5.51;25.99
56614;BME280;75854;35.670;139.690;2024-01-27T00:43:53;101569.09;;;5.96;25.66
56614;BME280;75854;35.670;139.690;2024-01-27T00:46:22;101564.89;;;5.82;25.75
56614;BME280;75854;35.670;139.690;2024-01-27T00:48:53;101565.42;;;6.40;24.98
56614;BME280;75854;35.670;139.690;2024-01-27T00:51:22;101566.50;;;6.71;24.92
56614;BME280;75854;35.670;139.690;2024-01-27T00:53:52;101569.91;;;6.42;24.95
56614;BME280;75854;35.670;139.690;2024-01-27T00:56:22;101563.12;;;6.28;25.17
56614;BME280;75854;35.670;139.690;2024-01-27T00:58:52;101568.23;;;5.67;25.22
56614;BME280;75854;35.670;139.690;2024-01-27T01:01:21;101567.56;;;6.38;25.32
56614;BME280;75854;35.670;139.690;2024-01-27T01:03:51;101569.38;;;6.74;24.62
56614;BME280;75854;35.670;139.690;2024-01-27T01:06:21;101571.40;;;6.73;24.64
56614;BME280;75854;35.670;139.690;2024-01-27T01:08:51;101581.10;;;6.56;24.89
56614;BME280;75854;35.670;139.690;2024-01-27T01:11:21;101564.55;;;5.99;25.81
56614;BME280;75854;35.670;139.690;2024-01-27T01:13:50;101566.31;;;6.47;24.51
56614;BME280;75854;35.670;139.690;2024-01-27T01:16:20;101570.84;;;6.77;24.37
56614;BME280;75854;35.670;139.690;2024-01-27T01:18:51;101568.58;;;6.58;25.01
56614;BME280;75854;35.670;139.690;2024-01-27T01:21:21;101565.82;;;7.22;24.00
56614;BME280;75854;35.670;139.690;2024-01-27T01:23:50;101562.96;;;7.21;24.42
56614;BME280;75854;35.670;139.690;2024-01-27T01:26:20;101566.00;;;6.98;24.21
56614;BME280;75854;35.670;139.690;2024-01-27T01:28:50;101567.26;;;7.45;24.08
56614;BME280;75854;35.670;139.690;2024-01-27T01:31:21;101563.87;;;7.36;24.13
56614;BME280;75854;35.670;139.690;2024-01-27T01:33:51;101564.68;;;8.56;23.23
56614;BME280;75854;35.670;139.690;2024-01-27T01:36:20;101558.34;;;7.66;23.53
56614;BME280;75854;35.670;139.690;2024-01-27T01:38:50;101563.91;;;7.39;24.10
56614;BME280;75854;35.670;139.690;2024-01-27T01:41:20;101561.40;;;6.95;24.26
56614;BME280;75854;35.670;139.690;2024-01-27T01:43:50;101560.13;;;7.22;24.52
56614;BME280;75854;35.670;139.690;2024-01-27T01:46:21;101552.21;;;7.65;23.90
56614;BME280;75854;35.670;139.690;2024-01-27T01:48:51;101550.50;;;7.91;23.75
56614;BME280;75854;35.670;139.690;2024-01-27T01:51:22;101545.51;;;6.98;24.59
56614;BME280;75854;35.670;139.690;2024-01-27T01:53:52;101535.64;;;7.79;23.98
56614;BME280;75854;35.670;139.690;2024-01-27T01:56:24;101536.53;;;7.96;23.73
56614;BME280;75854;35.670;139.690;2024-01-27T01:58:55;101536.30;;;6.94;24.38
56614;BME280;75854;35.670;139.690;2024-01-27T02:01:25;101527.26;;;7.34;24.03
56614;BME280;75854;35.670;139.690;2024-01-27T02:03:55;101520.55;;;7.88;23.89
56614;BME280;75854;35.670;139.690;2024-01-27T02:06:25;101523.37;;;8.06;23.59
56614;BME280;75854;35.670;139.690;2024-01-27T02:08:55;101520.55;;;8.05;23.66
56614;BME280;75854;35.670;139.690;2024-01-27T02:11:24;101518.55;;;7.77;23.85
56614;BME280;75854;35.670;139.690;2024-01-27T02:13:54;101523.87;;;7.59;24.07
56614;BME280;75854;35.670;139.690;2024-01-27T02:16:24;101518.48;;;7.51;23.97
56614;BME280;75854;35.670;139.690;2024-01-27T02:18:53;101512.05;;;7.82;24.45
56614;BME280;75854;35.670;139.690;2024-01-27T02:21:23;101505.41;;;7.42;24.14
56614;BME280;75854;35.670;139.690;2024-01-27T02:23:53;101490.51;;;7.32;24.62
56614;BME280;75854;35.670;139.690;2024-01-27T02:26:22;101485.46;;;7.56;23.65
56614;BME280;75854;35.670;139.690;2024-01-27T02:28:52;101484.72;;;7.28;24.59
56614;BME280;75854;35.670;139.690;2024-01-27T02:31:21;101478.52;;;7.87;23.81
56614;BME280;75854;35.670;139.690;2024-01-27T02:33:51;101481.54;;;7.92;23.92
56614;BME280;75854;35.670;139.690;2024-01-27T02:36:21;101465.62;;;7.21;24.06
56614;BME280;75854;35.670;139.690;2024-01-27T02:38:51;101461.80;;;7.57;24.02
56614;BME280;75854;35.670;139.690;2024-01-27T02:41:20;101457.62;;;7.66;24.00
56614;BME280;75854;35.670;139.690;2024-01-27T02:43:51;101452.04;;;7.13;24.07
56614;BME280;75854;35.670;139.690;2024-01-27T02:46:21;101452.30;;;7.45;24.43
56614;BME280;75854;35.670;139.690;2024-01-27T02:48:51;101452.55;;;7.78;24.11
56614;BME280;75854;35.670;139.690;2024-01-27T02:51:21;101447.68;;;7.56;24.30
56614;BME280;75854;35.670;139.690;2024-01-27T02:53:51;101444.79;;;7.84;23.82
56614;BME280;75854;35.670;139.690;2024-01-27T02:56:20;101453.39;;;7.90;23.66
56614;BME280;75854;35.670;139.690;2024-01-27T02:58:55;101452.60;;;7.89;23.95
56614;BME280;75854;35.670;139.690;2024-01-27T03:01:25;101449.18;;;7.71;23.88
56614;BME280;75854;35.670;139.690;2024-01-27T03:03:54;101455.06;;;7.97;23.37
56614;BME280;75854;35.670;139.690;2024-01-27T03:06:24;101451.84;;;8.05;23.36
56614;BME280;75854;35.670;139.690;2024-01-27T03:08:54;101446.78;;;8.19;23.17
56614;BME280;75854;35.670;139.690;2024-01-27T03:11:23;101438.17;;;8.24;22.80
56614;BME280;75854;35.670;139.690;2024-01-27T03:13:53;101441.46;;;8.80;23.24
56614;BME280;75854;35.670;139.690;2024-01-27T03:16:23;101423.57;;;8.75;22.51
56614;BME280;75854;35.670;139.690;2024-01-27T03:18:52;101426.28;;;8.32;22.87
56614;BME280;75854;35.670;139.690;2024-01-27T03:21:22;101420.86;;;8.89;22.88
56614;BME280;75854;35.670;139.690;2024-01-27T03:23:52;101405.44;;;8.97;22.73
56614;BME280;75854;35.670;139.690;2024-01-27T03:26:21;101403.84;;;9.09;22.83
56614;BME280;75854;35.670;139.690;2024-01-27T03:28:51;101402.56;;;8.66;23.10
56614;BME280;75854;35.670;139.690;2024-01-27T03:31:21;101397.02;;;8.46;23.30
56614;BME280;75854;35.670;139.690;2024-01-27T03:33:51;101396.99;;;8.21;23.25
56614;BME280;75854;35.670;139.690;2024-01-27T03:36:21;101384.93;;;8.02;23.54
56614;BME280;75854;35.670;139.690;2024-01-27T03:38:51;101375.17;;;7.72;23.37
56614;BME280;75854;35.670;139.690;2024-01-27T03:41:21;101382.63;;;7.76;23.66
56614;BME280;75854;35.670;139.690;2024-01-27T03:43:51;101389.25;;;8.15;23.62
56614;BME280;75854;35.670;139.690;2024-01-27T03:46:21;101381.88;;;7.82;23.42
56614;BME280;75854;35.670;139.690;2024-01-27T03:48:51;101371.76;;;8.14;23.34
56614;BME280;75854;35.670;139.690;2024-01-27T03:51:21;101361.62;;;8.32;22.97
56614;BME280;75854;35.670;139.690;2024-01-27T03:53:50;101371.55;;;7.90;23.27
56614;BME280;75854;35.670;139.690;2024-01-27T03:56:20;101370.92;;;7.80;22.99
56614;BME280;75854;35.670;139.690;2024-01-27T03:58:51;101367.48;;;7.95;22.72
56614;BME280;75854;35.670;139.690;2024-01-27T04:01:21;101360.05;;;8.75;22.34
56614;BME280;75854;35.670;139.690;2024-01-27T04:03:51;101358.82;;;8.22;22.75
56614;BME280;75854;35.670;139.690;2024-01-27T04:06:21;101360.66;;;8.01;22.64
56614;BME280;75854;35.670;139.690;2024-01-27T04:08:51;101353.02;;;7.75;22.91
56614;BME280;75854;35.670;139.690;2024-01-27T04:11:22;101347.23;;;8.49;22.32
56614;BME280;75854;35.670;139.690;2024-01-27T04:13:52;101339.14;;;8.34;22.46
56614;BME280;75854;35.670;139.690;2024-01-27T04:16:21;101337.39;;;8.98;22.60
56614;BME280;75854;35.670;139.690;2024-01-27T04:18:51;101341.96;;;7.70;23.15
56614;BME280;75854;35.670;139.690;2024-01-27T04:21:20;101347.52;;;7.45;23.80
56614;BME280;75854;35.670;139.690;2024-01-27T04:23:50;101334.71;;;7.68;23.44
56614;BME280;75854;35.670;139.690;2024-01-27T04:26:20;101336.67;;;7.96;23.17
56614;BME280;75854;35.670;139.690;2024-01-27T04:28:51;101331.88;;;8.33;23.09
56614;BME280;75854;35.670;139.690;2024-01-27T04:31:21;101323.72;;;8.40;23.22
56614;BME280;75854;35.670;139.690;2024-01-27T04:33:51;101323.62;;;8.85;22.90
56614;BME280;75854;35.670;139.690;2024-01-27T04:36:28;101321.03;;;8.62;22.74
56614;BME280;75854;35.670;139.690;2024-01-27T04:38:58;101330.64;;;8.03;23.18
56614;BME280;75854;35.670;139.690;2024-01-27T04:41:28;101329.60;;;8.28;22.94
56614;BME280;75854;35.670;139.690;2024-01-27T04:43:58;101335.36;;;8.52;22.87
56614;BME280;75854;35.670;139.690;2024-01-27T04:46:29;101335.81;;;8.96;22.62
56614;BME280;75854;35.670;139.690;2024-01-27T04:48:58;101336.45;;;8.93;22.33
56614;BME280;75854;35.670;139.690;2024-01-27T04:51:28;101340.08;;;8.71;22.75
56614;BME280;75854;35.670;139.690;2024-01-27T04:53:58;101342.51;;;8.68;22.82
56614;BME280;75854;35.670;139.690;2024-01-27T04:56:28;101338.66;;;8.66;22.77
56614;BME280;75854;35.670;139.690;2024-01-27T04:58:58;101346.00;;;8.73;23.10
56614;BME280;75854;35.670;139.690;2024-01-27T05:01:28;101344.10;;;9.34;22.72
56614;BME280;75854;35.670;139.690;2024-01-27T05:03:58;101348.59;;;9.04;22.82
56614;BME280;75854;35.670;139.690;2024-01-27T05:06:28;101342.75;;;9.00;23.01
56614;BME280;75854;35.670;139.690;2024-01-27T05:08:59;101338.69;;;8.17;23.04
56614;BME280;75854;35.670;139.690;2024-01-27T05:11:31;101340.86;;;8.93;22.97
56614;BME280;75854;35.670;139.690;2024-01-27T05:14:00;101340.66;;;8.34;23.21
56614;BME280;75854;35.670;139.690;2024-01-27T05:16:30;101341.43;;;8.11;24.02
56614;BME280;75854;35.670;139.690;2024-01-27T05:19:00;101340.08;;;8.60;23.32
56614;BME280;75854;35.670;139.690;2024-01-27T05:21:29;101346.70;;;8.98;23.13
56614;BME280;75854;35.670;139.690;2024-01-27T05:23:59;101335.04;;;8.47;23.66
56614;BME280;75854;35.670;139.690;2024-01-27T05:26:29;101342.90;;;8.74;22.97
56614;BME280;75854;35.670;139.690;2024-01-27T05:28:59;101348.68;;;9.12;22.73
56614;BME280;75854;35.670;139.690;2024-01-27T05:31:30;101349.18;;;9.75;22.12
56614;BME280;75854;35.670;139.690;2024-01-27T05:34:00;101359.09;;;9.37;22.41
56614;BME280;75854;35.670;139.690;2024-01-27T05:36:30;101354.77;;;9.00;23.04
56614;BME280;75854;35.670;139.690;2024-01-27T05:39:00;101348.05;;;8.67;23.45
56614;BME280;75854;35.670;139.690;2024-01-27T05:41:31;101344.73;;;9.04;22.68
56614;BME280;75854;35.670;139.690;2024-01-27T05:44:01;101341.20;;;8.92;23.14
56614;BME280;75854;35.670;139.690;2024-01-27T05:46:31;101336.98;;;8.76;23.16
56614;BME280;75854;35.670;139.690;2024-01-27T05:49:01;101352.18;;;9.06;22.72
56614;BME280;75854;35.670;139.690;2024-01-27T05:51:31;101357.30;;;8.81;23.04
56614;BME280;75854;35.670;139.690;2024-01-27T05:54:01;101373.63;;;8.93;22.94
56614;BME280;75854;35.670;139.690;2024-01-27T05:56:31;101363.65;;;8.59;23.17
56614;BME280;75854;35.670;139.690;2024-01-27T05:59:01;101357.45;;;8.58;23.37
56614;BME280;75854;35.670;139.690;2024-01-27T06:01:31;101350.76;;;9.14;22.80
56614;BME280;75854;35.670;139.690;2024-01-27T06:04:01;101346.44;;;8.98;23.23
56614;BME280;75854;35.670;139.690;2024-01-27T06:06:31;101342.27;;;9.27;22.60
56614;BME280;75854;35.670;139.690;2024-01-27T06:09:01;101339.21;;;8.55;23.51
56614;BME280;75854;35.670;139.690;2024-01-27T06:11:31;101348.49;;;9.24;23.28
56614;BME280;75854;35.670;139.690;2024-01-27T06:14:01;101343.89;;;9.32;23.37
56614;BME280;75854;35.670;139.690;2024-01-27T06:16:31;101343.25;;;9.38;23.22
56614;BME280;75854;35.670;139.690;2024-01-27T06:19:01;101344.43;;;8.70;23.75
56614;BME280;75854;35.670;139.690;2024-01-27T06:21:31;101354.03;;;9.05;23.57
56614;BME280;75854;35.670;139.690;2024-01-27T06:24:01;101356.74;;;8.07;24.21
56614;BME280;75854;35.670;139.690;2024-01-27T06:26:31;101361.23;;;8.10;24.27
56614;BME280;75854;35.670;139.690;2024-01-27T06:29:01;101364.85;;;8.77;23.54
56614;BME280;75854;35.670;139.690;2024-01-27T06:31:31;101385.24;;;8.05;23.97
56614;BME280;75854;35.670;139.690;2024-01-27T06:34:01;101375.31;;;8.78;23.31
56614;BME280;75854;35.670;139.690;2024-01-27T06:36:33;101383.59;;;8.73;23.20
56614;BME280;75854;35.670;139.690;2024-01-27T06:39:03;101382.13;;;8.88;23.18
56614;BME280;75854;35.670;139.690;2024-01-27T06:41:33;101387.43;;;9.13;22.82
56614;BME280;75854;35.670;139.690;2024-01-27T06:44:04;101393.89;;;8.64;23.38
56614;BME280;75854;35.670;139.690;2024-01-27T06:46:34;101395.39;;;9.15;22.50
56614;BME280;75854;35.670;139.690;2024-01-27T06:49:04;101399.02;;;9.36;22.43
56614;BME280;75854;35.670;139.690;2024-01-27T06:51:34;101401.49;;;9.38;22.39
56614;BME280;75854;35.670;139.690;2024-01-27T06:54:04;101402.48;;;9.07;22.35
56614;BME280;75854;35.670;139.690;2024-01-27T06:56:34;101401.68;;;8.63;22.73
56614;BME280;75854;35.670;139.690;2024-01-27T06:59:04;101412.24;;;9.29;22.38
56614;BME280;75854;35.670;139.690;2024-01-27T07:01:34;101418.42;;;8.77;22.66
56614;BME280;75854;35.670;139.690;2024-01-27T07:04:04;101420.87;;;9.51;22.52
56614;BME280;75854;35.670;139.690;2024-01-27T07:06:34;101423.19;;;7.80;23.71
56614;BME280;75854;35.670;139.690;2024-01-27T07:09:04;101423.47;;;9.10;22.52
56614;BME280;75854;35.670;139.690;2024-01-27T07:11:35;101425.68;;;8.89;22.42
56614;BME280;75854;35.670;139.690;2024-01-27T07:14:05;101426.55;;;9.02;22.48
56614;BME280;75854;35.670;139.690;2024-01-27T07:16:35;101425.84;;;8.73;22.70
56614;BME280;75854;35.670;139.690;2024-01-27T07:19:05;101424.18;;;8.94;22.46
56614;BME280;75854;35.670;139.690;2024-01-27T07:21:36;101422.41;;;8.79;23.21
56614;BME280;75854;35.670;139.690;2024-01-27T07:24:06;101420.96;;;9.18;22.57
56614;BME280;75854;35.670;139.690;2024-01-27T07:26:36;101421.48;;;8.57;22.85
56614;BME280;75854;35.670;139.690;2024-01-27T07:29:06;101429.02;;;9.09;22.68
56614;BME280;75854;35.670;139.690;2024-01-27T07:31:37;101437.37;;;8.68;22.93
56614;BME280;75854;35.670;139.690;2024-01-27T07:34:07;101450.75;;;9.47;22.59
56614;BME280;75854;35.670;139.690;2024-01-27T07:36:37;101458.87;;;8.23;23.32
56614;BME280;75854;35.670;139.690;2024-01-27T07:39:07;101469.51;;;8.45;23.29
56614;BME280;75854;35.670;139.690;2024-01-27T07:41:37;101468.07;;;8.40;23.39
56614;BME280;75854;35.670;139.690;2024-01-27T07:44:11;101472.98;;;7.90;24.14
56614;BME280;75854;35.670;139.690;2024-01-27T07:46:43;101477.83;;;8.01;24.14
56614;BME280;75854;35.670;139.690;2024-01-27T07:49:13;101480.55;;;7.51;24.97
56614;BME280;75854;35.670;139.690;2024-01-27T07:51:43;101476.53;;;8.12;23.72
56614;BME280;75854;35.670;139.690;2024-01-27T07:54:13;101474.29;;;8.04;23.75
56614;BME280;75854;35.670;139.690;2024-01-27T07:56:42;101474.22;;;7.92;23.85
56614;BME280;75854;35.670;139.690;2024-01-27T07:59:12;101475.99;;;7.90;24.15
56614;BME280;75854;35.670;139.690;2024-01-27T08:01:42;101488.42;;;7.83;24.22
56614;BME280;75854;35.670;139.690;2024-01-27T08:04:12;101486.65;;;7.63;24.03
56614;BME280;75854;35.670;139.690;2024-01-27T08:06:48;101491.23;;;8.19;24.01
56614;BME280;75854;35.670;139.690;2024-01-27T08:09:19;101486.79;;;7.50;24.45
56614;BME280;75854;35.670;139.690;2024-01-27T08:11:50;101486.99;;;7.64;24.67
56614;BME280;75854;35.670;139.690;2024-01-27T08:14:20;101481.79;;;7.30;24.60
56614;BME280;75854;35.670;139.690;2024-01-27T08:16:50;101476.35;;;7.60;24.87
56614;BME280;75854;35.670;139.690;2024-01-27T08:19:21;101485.94;;;7.57;24.47
56614;BME280;75854;35.670;139.690;2024-01-27T08:21:51;101493.17;;;8.12;24.10
56614;BME280;75854;35.670;139.690;2024-01-27T08:24:24;101499.87;;;7.95;24.15
56614;BME280;75854;35.670;139.690;2024-01-27T08:26:54;101524.54;;;8.06;24.38
56614;BME280;75854;35.670;139.690;2024-01-27T08:29:25;101525.56;;;7.49;24.13
56614;BME280;75854;35.670;139.690;2024-01-27T08:31:54;101531.89;;;7.73;24.84
56614;BME280;75854;35.670;139.690;2024-01-27T08:34:25;101529.39;;;7.34;24.94
56614;BME280;75854;35.670;139.690;2024-01-27T08:37:01;101527.78;;;7.62;24.79
56614;BME280;75854;35.670;139.690;2024-01-27T08:39:31;101535.35;;;7.53;25.03
56614;BME280;75854;35.670;139.690;2024-01-27T08:42:02;101535.22;;;7.45;25.12
56614;BME280;75854;35.670;139.690;2024-01-27T08:44:32;101537.78;;;7.05;25.33
56614;BME280;75854;35.670;139.690;2024-01-27T08:47:05;101544.98;;;7.52;25.20
56614;BME280;75854;35.670;139.690;2024-01-27T08:49:35;101544.82;;;7.11;25.25
56614;BME280;75854;35.670;139.690;2024-01-27T08:52:05;101552.84;;;7.98;24.69
56614;BME280;75854;35.670;139.690;2024-01-27T08:54:35;101554.95;;;7.73;24.76
56614;BME280;75854;35.670;139.690;2024-01-27T08:57:05;101556.02;;;7.93;24.90
56614;BME280;75854;35.670;139.690;2024-01-27T08:59:35;101555.47;;;7.96;25.25
56614;BME280;75854;35.670;139.690;2024-01-27T09:02:05;101559.97;;;7.85;25.37
56614;BME280;75854;35.670;139.690;2024-01-27T09:04:35;101560.13;;;8.06;24.93
56614;BME280;75854;35.670;139.690;2024-01-27T09:07:05;101566.63;;;7.96;25.23
56614;BME280;75854;35.670;139.690;2024-01-27T09:09:35;101566.13;;;7.29;25.79
56614;BME280;75854;35.670;139.690;2024-01-27T09:12:06;101570.98;;;7.07;25.77
56614;BME280;75854;35.670;139.690;2024-01-27T09:14:36;101555.87;;;7.95;25.67
56614;BME280;75854;35.670;139.690;2024-01-27T09:17:05;101562.38;;;7.78;25.18
56614;BME280;75854;35.670;139.690;2024-01-27T09:19:35;101561.48;;;7.06;26.02
56614;BME280;75854;35.670;139.690;2024-01-27T09:22:05;101566.82;;;7.40;25.74
56614;BME280;75854;35.670;139.690;2024-01-27T09:24:35;101563.73;;;7.29;25.49
56614;BME280;75854;35.670;139.690;2024-01-27T09:27:05;101571.98;;;7.46;25.40
56614;BME280;75854;35.670;139.690;2024-01-27T09:29:35;101590.10;;;6.87;25.75
56614;BME280;75854;35.670;139.690;2024-01-27T09:32:05;101587.80;;;7.45;25.56
56614;BME280;75854;35.670;139.690;2024-01-27T09:34:35;101599.53;;;6.88;25.61
56614;BME280;75854;35.670;139.690;2024-01-27T09:37:07;101598.99;;;6.46;25.82
56614;BME280;75854;35.670;139.690;2024-01-27T09:39:36;101592.31;;;6.94;25.67
56614;BME280;75854;35.670;139.690;2024-01-27T09:42:08;101597.83;;;7.45;25.19
56614;BME280;75854;35.670;139.690;2024-01-27T09:44:44;101591.96;;;5.93;26.30
56614;BME280;75854;35.670;139.690;2024-01-27T09:47:15;101584.82;;;6.11;26.39
56614;BME280;75854;35.670;139.690;2024-01-27T09:49:45;101577.00;;;5.98;26.59
56614;BME280;75854;35.670;139.690;2024-01-27T09:52:14;101571.97;;;6.62;26.26
56614;BME280;75854;35.670;139.690;2024-01-27T09:54:44;101586.49;;;6.56;26.25
56614;BME280;75854;35.670;139.690;2024-01-27T09:57:13;101579.79;;;7.38;26.14
56614;BME280;75854;35.670;139.690;2024-01-27T09:59:45;101579.33;;;7.20;25.77
56614;BME280;75854;35.670;139.690;2024-01-27T10:02:20;101582.30;;;6.99;25.98
56614;BME280;75854;35.670;139.690;2024-01-27T10:04:55;101572.02;;;7.45;25.63
56614;BME280;75854;35.670;139.690;2024-01-27T10:07:26;101573.80;;;6.45;26.61
56614;BME280;75854;35.670;139.690;2024-01-27T10:09:57;101568.78;;;6.23;26.71
56614;BME280;75854;35.670;139.690;2024-01-27T10:12:27;101578.01;;;7.04;26.04
56614;BME280;75854;35.670;139.690;2024-01-27T10:14:59;101582.20;;;7.04;25.82
56614;BME280;75854;35.670;139.690;2024-01-27T10:17:28;101580.24;;;7.43;25.88
56614;BME280;75854;35.670;139.690;2024-01-27T10:20:02;101590.50;;;7.60;25.58
56614;BME280;75854;35.670;139.690;2024-01-27T10:22:39;101592.07;;;7.22;25.78
56614;BME280;75854;35.670;139.690;2024-01-27T10:25:10;101582.27;;;7.62;25.56
56614;BME280;75854;35.670;139.690;2024-01-27T10:27:40;101578.02;;;7.62;25.92
56614;BME280;75854;35.670;139.690;2024-01-27T10:30:17;101585.68;;;7.82;25.55
56614;BME280;75854;35.670;139.690;2024-01-27T10:32:57;101585.62;;;7.36;25.82
56614;BME280;75854;35.670;139.690;2024-01-27T10:35:28;101581.25;;;7.67;25.70
56614;BME280;75854;35.670;139.690;2024-01-27T10:37:58;101589.86;;;7.50;26.23
56614;BME280;75854;35.670;139.690;2024-01-27T10:40:29;101599.10;;;7.48;26.12
56614;BME280;75854;35.670;139.690;2024-01-27T10:43:03;101602.17;;;7.06;26.37
56614;BME280;75854;35.670;139.690;2024-01-27T10:45:37;101603.33;;;6.65;26.29
56614;BME280;75854;35.670;139.690;2024-01-27T10:48:09;101599.24;;;7.12;26.17
56614;BME280;75854;35.670;139.690;2024-01-27T10:50:40;101606.81;;;7.28;26.17
56614;BME280;75854;35.670;139.690;2024-01-27T10:53:23;101612.82;;;7.18;26.46
56614;BME280;75854;35.670;139.690;2024-01-27T10:55:55;101619.08;;;6.99;26.23
56614;BME280;75854;35.670;139.690;2024-01-27T10:58:27;101614.64;;;7.29;26.28
56614;BME280;75854;35.670;139.690;2024-01-27T11:00:59;101615.74;;;7.33;26.24
56614;BME280;75854;35.670;139.690;2024-01-27T11:03:30;101622.43;;;7.33;26.44
56614;BME280;75854;35.670;139.690;2024-01-27T11:06:00;101617.65;;;7.65;26.30
56614;BME280;75854;35.670;139.690;2024-01-27T11:08:31;101623.26;;;7.33;26.48
56614;BME280;75854;35.670;139.690;2024-01-27T11:11:01;101623.41;;;7.35;26.67
56614;BME280;75854;35.670;139.690;2024-01-27T11:13:33;101621.96;;;7.23;26.83
56614;BME280;75854;35.670;139.690;2024-01-27T11:16:05;101624.33;;;7.37;26.53
56614;BME280;75854;35.670;139.690;2024-01-27T11:18:35;101627.94;;;7.36;26.49
56614;BME280;75854;35.670;139.690;2024-01-27T11:21:05;101622.23;;;6.66;26.94
56614;BME280;75854;35.670;139.690;2024-01-27T11:23:36;101629.05;;;7.35;26.65
56614;BME280;75854;35.670;139.690;2024-01-27T11:26:07;101627.37;;;7.01;26.99
56614;BME280;75854;35.670;139.690;2024-01-27T11:28:37;101628.52;;;6.89;27.42
56614;BME280;75854;35.670;139.690;2024-01-27T11:31:08;101628.79;;;7.29;26.80
56614;BME280;75854;35.670;139.690;2024-01-27T11:33:43;101616.05;;;7.34;26.51
56614;BME280;75854;35.670;139.690;2024-01-27T11:36:21;101624.16;;;7.00;26.95
56614;BME280;75854;35.670;139.690;2024-01-27T11:38:52;101621.05;;;6.69;27.39
56614;BME280;75854;35.670;139.690;2024-01-27T11:41:27;101626.29;;;7.60;26.80
56614;BME280;75854;35.670;139.690;2024-01-27T11:43:59;101619.00;;;7.61;26.96
56614;BME280;75854;35.670;139.690;2024-01-27T11:46:29;101618.06;;;7.48;26.88
56614;BME280;75854;35.670;139.690;2024-01-27T11:48:59;101616.17;;;7.31;27.00
56614;BME280;75854;35.670;139.690;2024-01-27T11:51:29;101619.56;;;7.39;26.61
56614;BME280;75854;35.670;139.690;2024-01-27T11:53:58;101620.93;;;7.33;26.84
56614;BME280;75854;35.670;139.690;2024-01-27T11:56:28;101613.41;;;6.72;27.58
56614;BME280;75854;35.670;139.690;2024-01-27T11:58:58;101613.17;;;7.02;27.10
56614;BME280;75854;35.670;139.690;2024-01-27T12:01:28;101611.26;;;6.78;27.31
56614;BME280;75854;35.670;139.690;2024-01-27T12:03:58;101609.68;;;7.26;27.32
56614;BME280;75854;35.670;139.690;2024-01-27T12:06:28;101613.80;;;6.92;27.58
56614;BME280;75854;35.670;139.690;2024-01-27T12:08:59;101616.09;;;7.43;27.05
56614;BME280;75854;35.670;139.690;2024-01-27T12:11:28;101621.79;;;7.26;26.99
56614;BME280;75854;35.670;139.690;2024-01-27T12:13:58;101620.94;;;7.19;27.83
56614;BME280;75854;35.670;139.690;2024-01-27T12:16:30;101610.30;;;7.13;27.31
56614;BME280;75854;35.670;139.690;2024-01-27T12:19:00;101610.30;;;6.69;27.65
56614;BME280;75854;35.670;139.690;2024-01-27T12:21:30;101614.00;;;6.55;27.78
56614;BME280;75854;35.670;139.690;2024-01-27T12:24:00;101608.47;;;7.08;27.57
56614;BME280;75854;35.670;139.690;2024-01-27T12:26:30;101607.05;;;6.30;28.04
56614;BME280;75854;35.670;139.690;2024-01-27T12:29:01;101600.79;;;6.63;27.69
56614;BME280;75854;35.670;139.690;2024-01-27T12:31:30;101595.25;;;5.81;28.48
56614;BME280;75854;35.670;139.690;2024-01-27T12:34:01;101593.36;;;5.86;28.67
56614;BME280;75854;35.670;139.690;2024-01-27T12:36:31;101594.29;;;6.07;28.88
56614;BME280;75854;35.670;139.690;2024-01-27T12:39:06;101601.75;;;6.64;28.16
56614;BME280;75854;35.670;139.690;2024-01-27T12:41:36;101602.54;;;6.10;28.34
56614;BME280;75854;35.670;139.690;2024-01-27T12:44:07;101596.88;;;6.13;28.73
56614;BME280;75854;35.670;139.690;2024-01-27T12:46:38;101605.47;;;6.49;28.47
56614;BME280;75854;35.670;139.690;2024-01-27T12:49:09;101613.17;;;6.41;28.25
56614;BME280;75854;35.670;139.690;2024-01-27T12:51:38;101618.87;;;6.62;28.47
56614;BME280;75854;35.670;139.690;2024-01-27T12:54:08;101625.49;;;6.39;28.18
56614;BME280;75854;35.670;139.690;2024-01-27T12:56:39;101623.40;;;5.87;29.00